sensor_id;sensor_type;location;lat;lon;timestamp;P1;durP1;ratioP1;P2;durP2;ratioP2
29414;SDS011;20303;48.302;11.914;2023-08-06T00:08:49;2.47;;;2.28;;
29414;SDS011;20303;48.302;11.914;2023-08-06T00:18:50;2.22;;;2.03;;
29414;SDS011;20303;48.302;11.914;2023-08-06T00:28:51;2.30;;;2.10;;
29414;SDS011;20303;48.302;11.914;2023-08-06T00:38:52;2.50;;;2.30;;
29414;SDS011;20303;48.302;11.914;2023-08-06T00:48:55;2.30;;;2.10;;
29414;SDS011;20303;48.302;11.914;2023-08-06T00:58:56;2.50;;;2.30;;
29414;SDS011;20303;48.302;11.914;2023-08-06T01:09:11;2.35;;;2.15;;
29414;SDS011;20303;48.302;11.914;2023-08-06T01:19:22;2.20;;;2.00;;
29414;SDS011;20303;48.302;11.914;2023-08-06T01:29:31;2.25;;;2.08;;
29414;SDS011;20303;48.302;11.914;2023-08-06T01:39:34;2.50;;;2.30;;
29414;SDS011;20303;48.302;11.914;2023-08-06T01:49:35;2.60;;;2.40;;
29414;SDS011;20303;48.302;11.914;2023-08-06T01:59:36;2.60;;;2.40;;
29414;SDS011;20303;48.302;11.914;2023-08-06T02:09:37;2.30;;;2.10;;
29414;SDS011;20303;48.302;11.914;2023-08-06T02:19:39;2.38;;;2.17;;
29414;SDS011;20303;48.302;11.914;2023-08-06T02:29:43;2.60;;;2.40;;
29414;SDS011;20303;48.302;11.914;2023-08-06T02:39:44;2.30;;;2.10;;
29414;SDS011;20303;48.302;11.914;2023-08-06T02:49:45;2.63;;;2.20;;
29414;SDS011;20303;48.302;11.914;2023-08-06T02:59:46;2.38;;;2.17;;
29414;SDS011;20303;48.302;11.914;2023-08-06T03:09:47;2.30;;;2.10;;
29414;SDS011;20303;48.302;11.914;2023-08-06T03:19:48;2.53;;;2.33;;
29414;SDS011;20303;48.302;11.914;2023-08-06T03:29:49;4.20;;;2.30;;
29414;SDS011;20303;48.302;11.914;2023-08-06T03:39:50;2.38;;;2.08;;
29414;SDS011;20303;48.302;11.914;2023-08-06T03:49:51;2.30;;;2.10;;
29414;SDS011;20303;48.302;11.914;2023-08-06T03:59:52;2.40;;;2.20;;
29414;SDS011;20303;48.302;11.914;2023-08-06T04:09:57;2.20;;;2.00;;
29414;SDS011;20303;48.302;11.914;2023-08-06T04:19:59;2.40;;;2.20;;
29414;SDS011;20303;48.302;11.914;2023-08-06T04:30:01;2.35;;;2.15;;
29414;SDS011;20303;48.302;11.914;2023-08-06T04:40:03;2.08;;;1.98;;
29414;SDS011;20303;48.302;11.914;2023-08-06T04:50:04;2.25;;;2.05;;
29414;SDS011;20303;48.302;11.914;2023-08-06T05:00:06;2.38;;;2.17;;
29414;SDS011;20303;48.302;11.914;2023-08-06T05:10:07;2.50;;;2.10;;
29414;SDS011;20303;48.302;11.914;2023-08-06T05:20:08;2.25;;;2.05;;
29414;SDS011;20303;48.302;11.914;2023-08-06T05:30:10;1.90;;;1.80;;
29414;SDS011;20303;48.302;11.914;2023-08-06T05:40:11;2.30;;;2.10;;
29414;SDS011;20303;48.302;11.914;2023-08-06T05:50:12;2.25;;;2.05;;
29414;SDS011;20303;48.302;11.914;2023-08-06T06:00:14;2.60;;;2.00;;
29414;SDS011;20303;48.302;11.914;2023-08-06T06:10:15;2.10;;;1.90;;
29414;SDS011;20303;48.302;11.914;2023-08-06T06:20:16;1.88;;;1.77;;
29414;SDS011;20303;48.302;11.914;2023-08-06T06:30:17;1.90;;;1.80;;
29414;SDS011;20303;48.302;11.914;2023-08-06T06:40:18;2.20;;;1.90;;
29414;SDS011;20303;48.302;11.914;2023-08-06T06:50:19;1.88;;;1.77;;
29414;SDS011;20303;48.302;11.914;2023-08-06T07:00:20;1.95;;;1.80;;
29414;SDS011;20303;48.302;11.914;2023-08-06T07:10:21;2.15;;;1.95;;
29414;SDS011;20303;48.302;11.914;2023-08-06T07:20:22;1.90;;;1.80;;
29414;SDS011;20303;48.302;11.914;2023-08-06T07:30:23;2.05;;;1.65;;
29414;SDS011;20303;48.302;11.914;2023-08-06T07:40:24;2.10;;;1.75;;
29414;SDS011;20303;48.302;11.914;2023-08-06T07:50:25;1.95;;;1.70;;
29414;SDS011;20303;48.302;11.914;2023-08-06T08:00:26;1.80;;;1.70;;
29414;SDS011;20303;48.302;11.914;2023-08-06T08:10:27;2.10;;;1.90;;
29414;SDS011;20303;48.302;11.914;2023-08-06T08:20:28;2.13;;;1.90;;
29414;SDS011;20303;48.302;11.914;2023-08-06T08:30:31;1.60;;;1.50;;
29414;SDS011;20303;48.302;11.914;2023-08-06T08:40:33;1.60;;;1.50;;
29414;SDS011;20303;48.302;11.914;2023-08-06T08:50:38;1.98;;;1.63;;
29414;SDS011;20303;48.302;11.914;2023-08-06T09:00:42;1.60;;;1.50;;
29414;SDS011;20303;48.302;11.914;2023-08-06T09:10:48;2.90;;;1.50;;
29414;SDS011;20303;48.302;11.914;2023-08-06T09:20:49;1.67;;;1.58;;
29414;SDS011;20303;48.302;11.914;2023-08-06T09:30:52;1.60;;;1.50;;
29414;SDS011;20303;48.302;11.914;2023-08-06T09:40:55;1.60;;;1.50;;
29414;SDS011;20303;48.302;11.914;2023-08-06T09:50:56;1.60;;;1.50;;
29414;SDS011;20303;48.302;11.914;2023-08-06T10:00:58;1.50;;;1.30;;
29414;SDS011;20303;48.302;11.914;2023-08-06T10:11:01;1.40;;;1.30;;
29414;SDS011;20303;48.302;11.914;2023-08-06T10:21:04;1.30;;;1.20;;
29414;SDS011;20303;48.302;11.914;2023-08-06T10:31:08;1.33;;;1.23;;
29414;SDS011;20303;48.302;11.914;2023-08-06T10:41:09;1.50;;;1.40;;
29414;SDS011;20303;48.302;11.914;2023-08-06T10:51:16;1.42;;;1.25;;
29414;SDS011;20303;48.302;11.914;2023-08-06T11:01:17;1.27;;;1.17;;
29414;SDS011;20303;48.302;11.914;2023-08-06T11:11:18;1.20;;;1.10;;
29414;SDS011;20303;48.302;11.914;2023-08-06T11:21:20;1.25;;;1.10;;
29414;SDS011;20303;48.302;11.914;2023-08-06T11:31:22;1.20;;;1.10;;
29414;SDS011;20303;48.302;11.914;2023-08-06T11:41:23;1.20;;;1.10;;
29414;SDS011;20303;48.302;11.914;2023-08-06T11:51:27;1.20;;;0.95;;
29414;SDS011;20303;48.302;11.914;2023-08-06T12:01:28;1.58;;;0.90;;
29414;SDS011;20303;48.302;11.914;2023-08-06T12:11:29;1.00;;;0.90;;
29414;SDS011;20303;48.302;11.914;2023-08-06T12:21:31;1.00;;;0.80;;
29414;SDS011;20303;48.302;11.914;2023-08-06T12:31:32;1.00;;;0.82;;
29414;SDS011;20303;48.302;11.914;2023-08-06T12:41:33;1.88;;;0.90;;
29414;SDS011;20303;48.302;11.914;2023-08-06T12:51:34;1.58;;;0.82;;
29414;SDS011;20303;48.302;11.914;2023-08-06T13:01:35;3.40;;;0.85;;
29414;SDS011;20303;48.302;11.914;2023-08-06T13:11:37;4.70;;;0.90;;
29414;SDS011;20303;48.302;11.914;2023-08-06T13:31:45;6.63;;;1.20;;
29414;SDS011;20303;48.302;11.914;2023-08-06T13:41:47;3.92;;;1.10;;
29414;SDS011;20303;48.302;11.914;2023-08-06T13:51:48;5.47;;;1.13;;
29414;SDS011;20303;48.302;11.914;2023-08-06T14:01:49;4.25;;;1.02;;
29414;SDS011;20303;48.302;11.914;2023-08-06T14:11:50;8.55;;;1.35;;
29414;SDS011;20303;48.302;11.914;2023-08-06T14:21:51;5.90;;;1.23;;
29414;SDS011;20303;48.302;11.914;2023-08-06T14:31:52;6.90;;;1.10;;
29414;SDS011;20303;48.302;11.914;2023-08-06T14:41:53;6.63;;;1.02;;
29414;SDS011;20303;48.302;11.914;2023-08-06T14:51:54;6.38;;;1.38;;
29414;SDS011;20303;48.302;11.914;2023-08-06T15:01:59;5.70;;;1.15;;
29414;SDS011;20303;48.302;11.914;2023-08-06T15:12:00;3.90;;;1.00;;
29414;SDS011;20303;48.302;11.914;2023-08-06T15:22:01;3.17;;;1.00;;
29414;SDS011;20303;48.302;11.914;2023-08-06T15:32:02;3.50;;;1.15;;
29414;SDS011;20303;48.302;11.914;2023-08-06T15:42:03;3.72;;;0.98;;
29414;SDS011;20303;48.302;11.914;2023-08-06T15:52:05;3.72;;;1.10;;
29414;SDS011;20303;48.302;11.914;2023-08-06T16:02:06;3.40;;;0.90;;
29414;SDS011;20303;48.302;11.914;2023-08-06T16:12:08;2.20;;;0.90;;
29414;SDS011;20303;48.302;11.914;2023-08-06T16:22:09;2.85;;;0.80;;
29414;SDS011;20303;48.302;11.914;2023-08-06T16:32:10;2.20;;;0.90;;
29414;SDS011;20303;48.302;11.914;2023-08-06T16:42:11;1.83;;;0.68;;
29414;SDS011;20303;48.302;11.914;2023-08-06T16:52:12;1.50;;;0.70;;
29414;SDS011;20303;48.302;11.914;2023-08-06T17:02:13;2.45;;;0.80;;
29414;SDS011;20303;48.302;11.914;2023-08-06T17:12:14;1.15;;;0.68;;
29414;SDS011;20303;48.302;11.914;2023-08-06T17:22:19;1.20;;;0.60;;
29414;SDS011;20303;48.302;11.914;2023-08-06T17:32:20;2.13;;;0.70;;
29414;SDS011;20303;48.302;11.914;2023-08-06T17:42:21;1.30;;;0.60;;
29414;SDS011;20303;48.302;11.914;2023-08-06T17:52:22;0.77;;;0.50;;
29414;SDS011;20303;48.302;11.914;2023-08-06T18:02:23;1.67;;;0.60;;
29414;SDS011;20303;48.302;11.914;2023-08-06T18:12:24;1.25;;;0.60;;
29414;SDS011;20303;48.302;11.914;2023-08-06T18:22:25;0.45;;;0.45;;
29414;SDS011;20303;48.302;11.914;2023-08-06T18:32:26;1.33;;;0.57;;
29414;SDS011;20303;48.302;11.914;2023-08-06T18:42:28;0.80;;;0.50;;
29414;SDS011;20303;48.302;11.914;2023-08-06T18:52:29;0.70;;;0.50;;
29414;SDS011;20303;48.302;11.914;2023-08-06T19:02:30;0.40;;;0.40;;
29414;SDS011;20303;48.302;11.914;2023-08-06T19:12:31;0.88;;;0.45;;
29414;SDS011;20303;48.302;11.914;2023-08-06T19:22:32;0.60;;;0.50;;
29414;SDS011;20303;48.302;11.914;2023-08-06T19:32:33;0.75;;;0.55;;
29414;SDS011;20303;48.302;11.914;2023-08-06T19:42:34;1.05;;;0.50;;
29414;SDS011;20303;48.302;11.914;2023-08-06T19:52:35;0.90;;;0.50;;
29414;SDS011;20303;48.302;11.914;2023-08-06T20:02:37;1.02;;;0.40;;
29414;SDS011;20303;48.302;11.914;2023-08-06T20:12:38;0.60;;;0.40;;
29414;SDS011;20303;48.302;11.914;2023-08-06T20:22:39;0.60;;;0.50;;
29414;SDS011;20303;48.302;11.914;2023-08-06T20:32:41;0.55;;;0.50;;
29414;SDS011;20303;48.302;11.914;2023-08-06T20:42:42;0.57;;;0.50;;
29414;SDS011;20303;48.302;11.914;2023-08-06T20:52:43;0.77;;;0.50;;
29414;SDS011;20303;48.302;11.914;2023-08-06T21:02:44;0.50;;;0.50;;
29414;SDS011;20303;48.302;11.914;2023-08-06T21:12:45;0.60;;;0.57;;
29414;SDS011;20303;48.302;11.914;2023-08-06T21:22:46;0.60;;;0.50;;
29414;SDS011;20303;48.302;11.914;2023-08-06T21:32:47;0.75;;;0.55;;
29414;SDS011;20303;48.302;11.914;2023-08-06T21:42:49;0.70;;;0.60;;
29414;SDS011;20303;48.302;11.914;2023-08-06T21:52:50;0.60;;;0.50;;
29414;SDS011;20303;48.302;11.914;2023-08-06T22:02:51;0.50;;;0.50;;
29414;SDS011;20303;48.302;11.914;2023-08-06T22:12:52;0.68;;;0.50;;
29414;SDS011;20303;48.302;11.914;2023-08-06T22:22:53;0.55;;;0.55;;
29414;SDS011;20303;48.302;11.914;2023-08-06T22:32:54;0.70;;;0.60;;
29414;SDS011;20303;48.302;11.914;2023-08-06T22:42:55;0.63;;;0.60;;
29414;SDS011;20303;48.302;11.914;2023-08-06T22:52:56;0.82;;;0.80;;
29414;SDS011;20303;48.302;11.914;2023-08-06T23:02:57;1.05;;;0.70;;
29414;SDS011;20303;48.302;11.914;2023-08-06T23:12:58;0.77;;;0.70;;
29414;SDS011;20303;48.302;11.914;2023-08-06T23:22:59;0.90;;;0.73;;
29414;SDS011;20303;48.302;11.914;2023-08-06T23:33:00;1.70;;;0.80;;
29414;SDS011;20303;48.302;11.914;2023-08-06T23:43:01;0.80;;;0.80;;
29414;SDS011;20303;48.302;11.914;2023-08-06T23:53:03;1.00;;;0.70;;
